Time;durP1;ratioP1;P1;durP2;ratioP2;P2;SDS_P1;SDS_P2;PMS_P1;PMS_P2;Temp;Humidity;BMP_temperature;BMP_pressure;BME280_temperature;BME280_humidity;BME280_pressure;Samples;Min_cycle;Max_cycle;Signal;HPM_P1;HPM_P2
2023/06/10 00:00:35;;;;;;;2.30;2.20;;;19.30;90.10;;;;;;5087606;28;20262;-79
2023/06/10 00:03:01;;;;;;;2.72;2.55;;;19.30;90.00;;;;;;5087410;28;20246;-79
2023/06/10 00:05:29;;;;;;;3.08;2.97;;;19.30;89.80;;;;;;5091773;28;20178;-80
2023/06/10 00:07:56;;;;;;;2.40;2.30;;;19.30;89.80;;;;;;5092350;28;20554;-79
2023/06/10 00:10:22;;;;;;;2.33;2.17;;;19.20;89.90;;;;;;5090071;28;20217;-79
2023/06/10 00:12:47;;;;;;;2.00;1.90;;;19.20;89.40;;;;;;5094076;28;20182;-80
2023/06/10 00:15:13;;;;;;;2.75;2.65;;;19.20;89.30;;;;;;5089411;28;20214;-80
2023/06/10 00:17:39;;;;;;;3.25;2.97;;;19.20;89.20;;;;;;5098754;28;20814;-79
2023/06/10 00:20:08;;;;;;;2.67;2.53;;;19.10;89.20;;;;;;5094343;28;20174;-80
2023/06/10 00:22:34;;;;;;;16.08;3.60;;;19.10;89.00;;;;;;5100647;28;20174;-80
2023/06/10 00:25:00;;;;;;;3.72;3.50;;;19.10;89.10;;;;;;5093853;28;20175;-79
2023/06/10 00:27:31;;;;;;;3.90;3.45;;;19.00;89.20;;;;;;5101367;28;20228;-79
2023/06/10 00:29:56;;;;;;;2.90;2.67;;;19.00;89.30;;;;;;5100459;28;20245;-80
2023/06/10 00:32:22;;;;;;;2.72;2.22;;;18.80;90.60;;;;;;5091816;28;20726;-80
2023/06/10 00:34:48;;;;;;;2.05;1.95;;;18.60;91.20;;;;;;5096374;28;20210;-80
2023/06/10 00:37:13;;;;;;;1.92;1.92;;;18.70;90.30;;;;;;5095139;28;20670;-81
2023/06/10 00:39:39;;;;;;;1.83;1.67;;;18.60;90.70;;;;;;5089786;28;20187;-79
2023/06/10 00:42:06;;;;;;;1.80;1.70;;;18.60;91.40;;;;;;5090296;28;20182;-80
2023/06/10 00:44:32;;;;;;;2.05;1.95;;;18.60;91.00;;;;;;5079860;28;20185;-80
2023/06/10 00:46:58;;;;;;;2.28;2.17;;;18.50;91.90;;;;;;5096439;28;20182;-79
2023/06/10 00:49:24;;;;;;;2.80;2.60;;;18.40;91.40;;;;;;5098750;28;20178;-80
2023/06/10 00:51:52;;;;;;;2.08;2.03;;;18.40;92.30;;;;;;5097599;28;20667;-80
2023/06/10 00:54:19;;;;;;;2.08;2.03;;;18.40;91.20;;;;;;5103080;28;20827;-80
2023/06/10 00:56:46;;;;;;;1.58;1.58;;;18.40;91.60;;;;;;5089098;28;20283;-80
2023/06/10 00:59:14;;;;;;;1.92;1.80;;;18.30;92.80;;;;;;5101297;28;20172;-79
2023/06/10 01:01:40;;;;;;;1.35;1.35;;;18.40;91.70;;;;;;5088413;28;20523;-80
2023/06/10 01:04:09;;;;;;;2.28;2.10;;;18.40;91.30;;;;;;5091809;28;20178;-80
2023/06/10 01:07:14;;;;;;;3.15;1.73;;;18.40;91.30;;;;;;5102089;28;20171;-80
2023/06/10 01:10:01;;;;;;;1.77;1.70;;;18.40;92.20;;;;;;5087193;28;20257;-80
2023/06/10 01:12:52;;;;;;;2.00;1.90;;;18.40;91.10;;;;;;5094226;28;20189;-80
2023/06/10 01:15:18;;;;;;;1.92;1.92;;;18.40;90.70;;;;;;5093149;28;20240;-80
2023/06/10 01:17:57;;;;;;;2.60;2.42;;;18.40;91.70;;;;;;5093987;28;20202;-80
2023/06/10 01:20:24;;;;;;;2.45;2.15;;;18.40;93.10;;;;;;5106613;28;20230;-80
2023/06/10 01:22:50;;;;;;;3.75;2.35;;;18.40;92.80;;;;;;5097301;28;20528;-80
2023/06/10 01:25:18;;;;;;;2.67;2.58;;;18.40;93.70;;;;;;5099231;28;20269;-79
2023/06/10 01:27:47;;;;;;;2.65;2.45;;;18.30;94.00;;;;;;5096428;28;20714;-80
2023/06/10 01:30:17;;;;;;;2.28;2.05;;;18.40;92.70;;;;;;5102147;28;20239;-80
2023/06/10 01:32:48;;;;;;;2.60;2.50;;;18.40;93.20;;;;;;5101416;28;20194;-80
2023/06/10 01:35:15;;;;;;;3.22;2.25;;;18.40;93.50;;;;;;5073616;28;20214;-80
2023/06/10 01:37:45;;;;;;;2.65;2.50;;;18.40;94.10;;;;;;5099963;28;20186;-80
2023/06/10 01:40:12;;;;;;;2.60;2.40;;;18.40;92.60;;;;;;5081192;28;20207;-80
2023/06/10 01:42:38;;;;;;;2.15;2.05;;;18.30;94.70;;;;;;5093709;28;20692;-80
2023/06/10 01:45:04;;;;;;;5.13;2.50;;;18.20;94.90;;;;;;5095531;28;20273;-79
2023/06/10 01:47:30;;;;;;;2.17;2.08;;;18.20;94.80;;;;;;5093236;28;20177;-79
2023/06/10 01:49:56;;;;;;;2.33;2.22;;;18.10;95.50;;;;;;5091140;28;20760;-80
2023/06/10 01:52:22;;;;;;;8.18;1.98;;;18.10;94.70;;;;;;5102795;28;20182;-80
2023/06/10 01:54:47;;;;;;;2.22;2.13;;;18.20;93.90;;;;;;5096348;28;20205;-79
2023/06/10 01:57:13;;;;;;;1.98;1.88;;;18.20;94.90;;;;;;5093658;28;20238;-79
2023/06/10 01:59:39;;;;;;;2.30;2.20;;;18.20;94.30;;;;;;5095501;28;20204;-79
2023/06/10 02:02:05;;;;;;;2.28;2.17;;;18.00;95.90;;;;;;5077229;28;20182;-79
2023/06/10 02:04:31;;;;;;;2.30;2.20;;;17.80;96.80;;;;;;5092524;28;20576;-79
2023/06/10 02:06:57;;;;;;;2.72;2.13;;;17.80;96.40;;;;;;5078150;28;20175;-79
2023/06/10 02:09:22;;;;;;;3.22;2.55;;;17.80;96.30;;;;;;5092005;28;20686;-79
2023/06/10 02:11:48;;;;;;;2.30;2.13;;;17.90;95.80;;;;;;5093753;28;20181;-79
2023/06/10 02:14:14;;;;;;;2.10;2.00;;;17.90;95.70;;;;;;5095742;28;20217;-79
2023/06/10 02:16:40;;;;;;;5.22;2.05;;;18.00;95.10;;;;;;5100618;28;20190;-79
2023/06/10 02:19:06;;;;;;;2.40;2.30;;;18.00;94.80;;;;;;5077222;28;20319;-79
2023/06/10 02:21:34;;;;;;;1.90;1.90;;;18.10;94.30;;;;;;5092949;28;20174;-79
2023/06/10 02:24:00;;;;;;;1.95;1.90;;;18.20;94.10;;;;;;5088724;28;20273;-78
2023/06/10 02:26:26;;;;;;;3.38;2.25;;;18.20;93.30;;;;;;5091483;28;20228;-78
2023/06/10 02:28:52;;;;;;;1.88;1.77;;;18.30;93.10;;;;;;5073722;28;20183;-78
2023/06/10 02:31:18;;;;;;;2.92;1.77;;;18.30;92.80;;;;;;5097391;28;20583;-79
2023/06/10 02:33:44;;;;;;;2.22;1.92;;;18.30;93.90;;;;;;5072772;28;20198;-79
2023/06/10 02:36:15;;;;;;;2.08;1.98;;;18.30;93.80;;;;;;5095305;28;20674;-79
2023/06/10 02:38:41;;;;;;;2.40;2.20;;;18.40;92.90;;;;;;5096018;28;20167;-80
2023/06/10 02:41:07;;;;;;;1.75;1.65;;;18.40;92.50;;;;;;5092373;28;20182;-79
2023/06/10 02:43:32;;;;;;;1.90;1.85;;;18.50;92.40;;;;;;5093551;28;20194;-79
2023/06/10 02:45:58;;;;;;;2.08;1.98;;;18.60;92.20;;;;;;5097602;28;20178;-79
2023/06/10 02:48:24;;;;;;;2.05;1.95;;;18.60;92.20;;;;;;5099293;28;20206;-79
2023/06/10 02:50:50;;;;;;;2.08;1.98;;;18.60;92.00;;;;;;5090682;28;20659;-78
2023/06/10 02:53:16;;;;;;;2.38;2.17;;;18.70;91.90;;;;;;5093496;28;20284;-79
2023/06/10 02:55:42;;;;;;;1.92;1.92;;;18.70;91.80;;;;;;5075743;28;20186;-79
2023/06/10 02:58:08;;;;;;;1.45;1.45;;;18.70;91.90;;;;;;5095856;28;20279;-79
2023/06/10 03:00:34;;;;;;;1.88;1.85;;;18.70;92.00;;;;;;5094675;28;20658;-79
2023/06/10 03:03:02;;;;;;;2.00;1.40;;;18.70;91.90;;;;;;5090581;28;20643;-79
2023/06/10 03:05:28;;;;;;;1.55;1.55;;;18.70;91.80;;;;;;5080577;28;20205;-78
2023/06/10 03:07:54;;;;;;;1.98;1.95;;;18.80;91.90;;;;;;5098876;28;20177;-78
2023/06/10 03:10:20;;;;;;;2.08;1.98;;;18.80;91.80;;;;;;5078344;28;20182;-78
2023/06/10 03:12:45;;;;;;;1.38;1.38;;;18.80;91.80;;;;;;5091520;28;20183;-78
2023/06/10 03:15:11;;;;;;;1.95;1.85;;;18.80;91.90;;;;;;5096850;28;20202;-78
2023/06/10 03:17:36;;;;;;;1.77;1.75;;;18.80;91.80;;;;;;5101463;28;20213;-79
2023/06/10 03:20:05;;;;;;;1.92;1.77;;;18.90;91.90;;;;;;5097184;28;20189;-78
2023/06/10 03:22:31;;;;;;;3.22;1.75;;;18.90;91.90;;;;;;5092662;28;20801;-79
2023/06/10 03:24:57;;;;;;;1.50;1.50;;;18.90;91.90;;;;;;5076769;28;20189;-79
2023/06/10 03:27:22;;;;;;;1.95;1.85;;;18.90;91.90;;;;;;5090369;28;20268;-79
2023/06/10 03:29:48;;;;;;;5.07;1.83;;;19.00;92.20;;;;;;5081435;28;20308;-80
2023/06/10 03:32:14;;;;;;;1.83;1.75;;;19.00;92.40;;;;;;5090103;28;20227;-80
2023/06/10 03:34:40;;;;;;;2.47;1.98;;;19.00;92.30;;;;;;5090084;28;20205;-78
2023/06/10 03:37:06;;;;;;;2.55;2.45;;;19.00;92.20;;;;;;5086580;28;20186;-78
2023/06/10 03:39:33;;;;;;;2.40;2.30;;;19.00;92.50;;;;;;5088673;28;20277;-78
2023/06/10 03:41:58;;;;;;;3.20;2.67;;;19.00;92.40;;;;;;5090718;28;20174;-78
2023/06/10 03:44:27;;;;;;;2.13;2.03;;;19.00;92.50;;;;;;5092361;28;20184;-77
2023/06/10 03:46:54;;;;;;;2.85;2.50;;;19.00;92.30;;;;;;5090546;28;20166;-78
2023/06/10 03:49:20;;;;;;;2.50;2.40;;;19.00;93.00;;;;;;5090105;28;20564;-78
2023/06/10 03:51:46;;;;;;;2.17;2.17;;;18.90;93.00;;;;;;5085530;28;20193;-79
2023/06/10 03:54:11;;;;;;;2.30;2.20;;;19.00;92.70;;;;;;5080681;28;20212;-79
2023/06/10 03:56:37;;;;;;;2.13;2.03;;;19.00;93.90;;;;;;5092686;28;20260;-78
2023/06/10 03:59:03;;;;;;;2.22;2.13;;;18.90;93.50;;;;;;5074443;28;20277;-78
2023/06/10 04:01:29;;;;;;;1.90;1.90;;;18.90;93.10;;;;;;5081933;28;20713;-77
2023/06/10 04:03:55;;;;;;;2.03;1.98;;;19.00;93.20;;;;;;5069400;28;20220;-77
2023/06/10 04:06:22;;;;;;;2.28;2.17;;;19.00;93.00;;;;;;5090048;28;20252;-77
2023/06/10 04:08:48;;;;;;;2.22;2.13;;;19.00;93.00;;;;;;5091687;28;20200;-78
2023/06/10 04:11:14;;;;;;;2.45;2.28;;;18.90;93.70;;;;;;5081611;28;20178;-77
2023/06/10 04:13:39;;;;;;;2.17;2.08;;;18.90;93.20;;;;;;5089660;28;20229;-77
2023/06/10 04:16:05;;;;;;;2.45;2.35;;;18.90;93.80;;;;;;5094594;28;20658;-78
2023/06/10 04:18:31;;;;;;;2.55;2.35;;;18.90;93.30;;;;;;5092258;28;20192;-78
2023/06/10 04:20:56;;;;;;;2.58;2.47;;;18.90;93.00;;;;;;5087592;28;20182;-78
2023/06/10 04:23:22;;;;;;;2.13;2.03;;;18.90;93.20;;;;;;5107280;28;20727;-78
2023/06/10 04:25:48;;;;;;;2.80;2.47;;;18.90;93.30;;;;;;5105348;28;20230;-77
2023/06/10 04:28:14;;;;;;;2.72;2.58;;;19.00;93.30;;;;;;5101300;28;20663;-78
2023/06/10 04:30:39;;;;;;;2.15;2.05;;;19.00;93.30;;;;;;5102370;28;20216;-78
2023/06/10 04:33:08;;;;;;;2.47;2.22;;;19.00;93.30;;;;;;5091344;28;20174;-77
2023/06/10 04:35:33;;;;;;;2.22;2.13;;;19.00;93.70;;;;;;5093551;28;20210;-77
2023/06/10 04:37:59;;;;;;;2.55;2.45;;;19.00;93.40;;;;;;5093382;28;20187;-78
2023/06/10 04:40:25;;;;;;;2.80;2.08;;;19.00;93.30;;;;;;5095978;28;20166;-78
2023/06/10 04:42:51;;;;;;;2.35;2.25;;;19.10;93.30;;;;;;5097930;28;20174;-78
2023/06/10 04:45:17;;;;;;;1.90;1.80;;;19.10;93.40;;;;;;5095681;28;20185;-78
2023/06/10 04:47:43;;;;;;;3.05;2.83;;;19.10;93.40;;;;;;5073424;28;20754;-78
2023/06/10 04:50:09;;;;;;;2.10;2.00;;;19.20;93.40;;;;;;5094508;28;20193;-77
2023/06/10 04:52:35;;;;;;;1.98;1.98;;;19.20;93.30;;;;;;5095604;28;20666;-79
2023/06/10 04:55:00;;;;;;;3.60;1.65;;;19.20;93.20;;;;;;5103966;28;20708;-80
2023/06/10 04:57:26;;;;;;;2.50;2.33;;;19.30;93.20;;;;;;5095558;28;20186;-80
2023/06/10 04:59:52;;;;;;;5.82;2.55;;;19.30;93.20;;;;;;5090545;28;20667;-80
2023/06/10 05:02:18;;;;;;;2.38;2.28;;;19.40;92.90;;;;;;5099062;28;20179;-81
2023/06/10 05:04:44;;;;;;;3.38;2.17;;;19.30;92.50;;;;;;5099463;28;20837;-81
2023/06/10 05:07:09;;;;;;;2.40;2.30;;;19.30;92.60;;;;;;5103786;28;20188;-82
2023/06/10 05:09:35;;;;;;;6.80;3.00;;;19.20;92.90;;;;;;5105666;28;20201;-81
2023/06/10 05:12:02;;;;;;;2.40;2.30;;;18.90;94.20;;;;;;5081560;28;20742;-80
2023/06/10 05:14:27;;;;;;;2.38;2.28;;;18.80;95.00;;;;;;5075587;28;20285;-80
2023/06/10 05:16:53;;;;;;;2.88;2.67;;;18.80;94.50;;;;;;5091076;28;20266;-79
2023/06/10 05:19:19;;;;;;;2.72;2.58;;;18.80;94.30;;;;;;5092422;28;20181;-78
2023/06/10 05:21:45;;;;;;;2.55;2.47;;;18.90;94.00;;;;;;5098296;28;20569;-78
2023/06/10 05:24:11;;;;;;;2.90;2.25;;;19.00;94.20;;;;;;5091475;28;20210;-79
2023/06/10 05:26:37;;;;;;;2.42;2.33;;;19.00;93.60;;;;;;5092682;28;20728;-79
2023/06/10 05:29:09;;;;;;;4.65;3.17;;;18.90;95.10;;;;;;5096983;28;20185;-79
2023/06/10 05:31:34;;;;;;;3.65;3.45;;;18.90;94.80;;;;;;5090995;28;20265;-78
2023/06/10 05:34:00;;;;;;;3.13;2.83;;;18.90;95.40;;;;;;5091679;28;20651;-79
2023/06/10 05:36:27;;;;;;;3.25;3.03;;;18.80;95.30;;;;;;5092761;28;20583;-79
2023/06/10 05:38:53;;;;;;;2.92;2.72;;;18.90;95.30;;;;;;5072520;28;20179;-79
2023/06/10 05:41:18;;;;;;;2.97;2.78;;;19.00;94.80;;;;;;5091650;28;20187;-79
2023/06/10 05:43:44;;;;;;;3.13;2.95;;;19.10;94.30;;;;;;5096776;28;20185;-79
2023/06/10 05:46:10;;;;;;;3.17;2.97;;;19.20;94.20;;;;;;5097981;28;20228;-77
2023/06/10 05:48:35;;;;;;;2.50;2.33;;;19.30;94.60;;;;;;5092539;28;20178;-79
2023/06/10 05:51:01;;;;;;;2.85;2.65;;;19.40;93.70;;;;;;5095949;28;20182;-79
2023/06/10 05:53:27;;;;;;;2.22;2.13;;;19.60;92.90;;;;;;5094213;28;20228;-78
2023/06/10 05:55:57;;;;;;;2.30;2.20;;;19.70;93.00;;;;;;5091598;28;20191;-79
2023/06/10 05:58:23;;;;;;;2.80;2.70;;;19.80;92.50;;;;;;5091403;28;20182;-79
2023/06/10 06:00:49;;;;;;;2.88;2.67;;;19.90;92.00;;;;;;5094589;28;20182;-79
2023/06/10 06:03:15;;;;;;;2.33;2.22;;;19.90;91.50;;;;;;5093294;28;20250;-80
2023/06/10 06:05:41;;;;;;;2.70;2.50;;;19.90;90.50;;;;;;5100301;28;20208;-79
2023/06/10 06:08:10;;;;;;;2.33;2.22;;;20.00;90.60;;;;;;5093089;28;21418;-77
2023/06/10 06:10:35;;;;;;;5.03;2.60;;;20.00;90.70;;;;;;5093076;28;20636;-79
2023/06/10 06:13:01;;;;;;;2.95;2.67;;;20.00;90.50;;;;;;5088938;28;20225;-78
2023/06/10 06:15:27;;;;;;;4.65;2.55;;;20.10;90.50;;;;;;5096453;28;20197;-77
2023/06/10 06:17:53;;;;;;;2.67;2.47;;;20.20;90.20;;;;;;5098618;28;20208;-78
2023/06/10 06:20:22;;;;;;;2.38;2.17;;;20.30;89.90;;;;;;5103459;28;20262;-79
2023/06/10 06:22:48;;;;;;;4.35;2.63;;;20.20;89.50;;;;;;5095082;28;20245;-80
2023/06/10 06:25:14;;;;;;;2.05;1.95;;;20.30;89.10;;;;;;5092032;28;20189;-80
2023/06/10 06:27:40;;;;;;;2.33;2.22;;;20.30;89.00;;;;;;5081524;28;20179;-80
2023/06/10 06:30:07;;;;;;;2.58;2.38;;;20.30;89.10;;;;;;5091295;28;20206;-79
2023/06/10 06:32:32;;;;;;;1.75;1.75;;;20.30;88.30;;;;;;5096247;28;20830;-79
2023/06/10 06:34:58;;;;;;;1.92;1.92;;;20.40;88.10;;;;;;5079423;28;20224;-79
2023/06/10 06:37:25;;;;;;;2.03;1.92;;;20.50;88.20;;;;;;5088708;28;20171;-80
2023/06/10 06:39:51;;;;;;;1.98;1.80;;;20.60;87.60;;;;;;5096810;28;20548;-80
2023/06/10 06:42:17;;;;;;;1.75;1.75;;;20.70;87.40;;;;;;5097084;28;20178;-79
2023/06/10 06:44:43;;;;;;;1.92;1.83;;;20.90;87.40;;;;;;5094335;28;20906;-79
2023/06/10 06:47:09;;;;;;;2.55;2.35;;;21.00;86.90;;;;;;5092011;28;20257;-79
2023/06/10 06:49:34;;;;;;;3.22;2.08;;;21.10;86.50;;;;;;5096014;28;20177;-79
2023/06/10 06:52:00;;;;;;;2.08;1.88;;;21.10;86.10;;;;;;5097841;28;20175;-79
2023/06/10 06:54:26;;;;;;;3.88;1.75;;;21.20;86.30;;;;;;5091782;28;20787;-79
2023/06/10 06:56:51;;;;;;;1.85;1.83;;;21.30;86.30;;;;;;5088152;28;20663;-79
2023/06/10 06:59:19;;;;;;;2.10;2.00;;;21.40;86.20;;;;;;5078616;28;20184;-77
2023/06/10 07:01:45;;;;;;;1.83;1.83;;;21.60;85.80;;;;;;5093725;28;20602;-77
2023/06/10 07:04:11;;;;;;;2.28;2.08;;;21.60;85.10;;;;;;5099341;28;20183;-78
2023/06/10 07:06:37;;;;;;;2.25;1.98;;;21.60;85.20;;;;;;5074369;28;20174;-78
2023/06/10 07:09:04;;;;;;;2.60;2.50;;;21.50;84.60;;;;;;5076945;28;20647;-78
2023/06/10 07:11:30;;;;;;;2.35;1.77;;;21.50;84.60;;;;;;5098927;28;20202;-77
2023/06/10 07:13:56;;;;;;;2.47;2.38;;;21.60;84.40;;;;;;5089791;28;20217;-79
2023/06/10 07:16:22;;;;;;;5.35;2.35;;;21.50;84.50;;;;;;5075182;28;20697;-78
2023/06/10 07:18:47;;;;;;;3.88;2.85;;;21.60;84.30;;;;;;5095733;28;20166;-77
2023/06/10 07:21:13;;;;;;;2.75;2.58;;;21.60;84.10;;;;;;5075474;28;20236;-77
2023/06/10 07:23:42;;;;;;;2.08;2.05;;;21.50;84.40;;;;;;5098990;28;20177;-77
2023/06/10 07:26:10;;;;;;;2.17;2.08;;;21.60;84.70;;;;;;5074673;28;20200;-79
2023/06/10 07:28:37;;;;;;;2.53;2.38;;;21.70;84.00;;;;;;5091782;28;20186;-77
2023/06/10 07:31:03;;;;;;;4.45;2.17;;;21.70;82.80;;;;;;5093415;28;20198;-79
2023/06/10 07:33:28;;;;;;;2.00;1.90;;;21.80;82.20;;;;;;5082494;28;20257;-79
2023/06/10 07:35:54;;;;;;;1.92;1.83;;;21.90;82.00;;;;;;5076457;28;20607;-79
2023/06/10 07:38:20;;;;;;;4.18;1.70;;;22.00;82.30;;;;;;5094758;28;20173;-79
2023/06/10 07:40:46;;;;;;;2.35;1.58;;;22.20;81.50;;;;;;5100687;28;20537;-79
2023/06/10 07:43:12;;;;;;;2.03;1.92;;;22.40;80.80;;;;;;5102987;28;20256;-79
2023/06/10 07:45:40;;;;;;;2.10;2.00;;;22.60;79.50;;;;;;5100769;28;20568;-78
2023/06/10 07:48:05;;;;;;;1.60;1.50;;;22.80;78.40;;;;;;5099480;28;20191;-80
2023/06/10 07:50:31;;;;;;;1.70;1.67;;;22.90;77.50;;;;;;5090585;28;20261;-77
2023/06/10 07:52:57;;;;;;;1.73;1.65;;;23.10;75.90;;;;;;5105581;28;20244;-77
2023/06/10 07:55:23;;;;;;;1.63;1.63;;;23.30;74.70;;;;;;5114586;28;20674;-78
2023/06/10 07:57:49;;;;;;;2.20;2.03;;;23.30;75.60;;;;;;5091255;28;20479;-77
2023/06/10 08:00:15;;;;;;;1.98;1.88;;;23.30;76.90;;;;;;5102810;28;20179;-76
2023/06/10 08:02:41;;;;;;;2.67;1.65;;;23.30;76.90;;;;;;5096218;28;20181;-78
2023/06/10 08:05:07;;;;;;;2.78;1.80;;;23.20;77.30;;;;;;5084003;28;20185;-79
2023/06/10 08:07:32;;;;;;;2.13;2.10;;;23.20;77.30;;;;;;5091531;28;20208;-79
2023/06/10 08:09:58;;;;;;;1.50;1.48;;;23.30;75.40;;;;;;5101688;28;20182;-78
2023/06/10 08:12:24;;;;;;;2.00;1.88;;;23.30;75.20;;;;;;5096710;28;20820;-78
2023/06/10 08:14:49;;;;;;;1.95;1.70;;;23.30;75.40;;;;;;5094035;28;20284;-78
2023/06/10 08:17:15;;;;;;;1.58;1.58;;;23.30;75.00;;;;;;5090646;28;20185;-77
2023/06/10 08:19:41;;;;;;;2.67;1.52;;;23.30;76.10;;;;;;5106119;28;20177;-79
2023/06/10 08:22:06;;;;;;;1.65;1.65;;;23.40;74.60;;;;;;5107575;28;20210;-78
2023/06/10 08:24:33;;;;;;;1.90;1.63;;;23.40;72.90;;;;;;5094957;28;20200;-76
2023/06/10 08:26:58;;;;;;;1.70;1.60;;;23.30;72.10;;;;;;5094996;28;20211;-77
2023/06/10 08:29:25;;;;;;;1.55;1.17;;;23.20;70.70;;;;;;5100259;28;20190;-76
2023/06/10 08:31:50;;;;;;;1.50;1.40;;;23.10;70.60;;;;;;5077977;28;20677;-76
2023/06/10 08:34:16;;;;;;;1.70;1.50;;;23.00;71.50;;;;;;5093840;28;20237;-78
2023/06/10 08:36:43;;;;;;;1.30;1.30;;;23.00;72.50;;;;;;5090303;28;20174;-77
2023/06/10 08:39:09;;;;;;;1.27;1.27;;;23.00;72.50;;;;;;5094579;28;20646;-76
2023/06/10 08:41:42;;;;;;;1.75;1.70;;;23.10;72.90;;;;;;5094282;28;20193;-79
2023/06/10 08:44:11;;;;;;;1.30;1.30;;;23.10;73.00;;;;;;5096904;28;20242;-76
2023/06/10 08:46:38;;;;;;;1.90;1.80;;;23.20;73.70;;;;;;5096888;28;20185;-75
2023/06/10 08:49:07;;;;;;;1.67;1.67;;;23.10;71.40;;;;;;5093756;28;20217;-76
2023/06/10 08:51:36;;;;;;;1.52;1.52;;;22.90;71.30;;;;;;5093183;28;20196;-76
2023/06/10 08:54:14;;;;;;;1.40;1.40;;;23.00;71.70;;;;;;5092657;28;20213;-78
2023/06/10 08:56:40;;;;;;;1.60;1.50;;;23.00;72.10;;;;;;5093330;28;20191;-77
2023/06/10 08:59:06;;;;;;;1.70;1.60;;;23.10;72.60;;;;;;5079937;28;20702;-77
2023/06/10 09:01:32;;;;;;;1.60;1.55;;;23.20;73.40;;;;;;5093601;28;20175;-76
2023/06/10 09:03:59;;;;;;;1.45;1.40;;;23.40;72.60;;;;;;5093364;28;20186;-78
2023/06/10 09:06:26;;;;;;;1.33;1.33;;;23.50;72.30;;;;;;5092977;28;20648;-77
2023/06/10 09:08:52;;;;;;;1.20;1.20;;;23.60;69.70;;;;;;5092444;28;20171;-77
2023/06/10 09:11:18;;;;;;;1.10;1.10;;;23.70;70.40;;;;;;5092988;28;20178;-77
2023/06/10 09:13:43;;;;;;;1.30;1.30;;;23.80;69.90;;;;;;5081602;28;20624;-77
2023/06/10 09:16:11;;;;;;;1.50;1.40;;;23.90;70.80;;;;;;5094508;28;20239;-78
2023/06/10 09:18:37;;;;;;;1.30;1.30;;;24.00;69.80;;;;;;5092829;28;20182;-78
2023/06/10 09:21:03;;;;;;;1.52;1.50;;;24.20;70.30;;;;;;5099695;28;20659;-78
2023/06/10 09:23:29;;;;;;;2.60;1.38;;;24.30;69.90;;;;;;5088079;28;20244;-78
2023/06/10 09:25:59;;;;;;;1.60;1.52;;;24.50;70.30;;;;;;5073949;28;20205;-77
2023/06/10 09:28:25;;;;;;;1.40;1.40;;;24.60;71.30;;;;;;5074695;28;20544;-77
2023/06/10 09:31:05;;;;;;;1.48;1.38;;;24.70;69.60;;;;;;5098590;28;20193;-78
2023/06/10 09:33:31;;;;;;;2.67;1.42;;;24.80;70.00;;;;;;5099854;28;21607;-77
2023/06/10 09:36:00;;;;;;;1.02;1.02;;;25.00;69.60;;;;;;5086656;28;20190;-78
2023/06/10 09:38:30;;;;;;;1.73;1.35;;;25.10;69.50;;;;;;5095352;28;20186;-78
2023/06/10 09:40:56;;;;;;;2.50;1.80;;;25.30;68.30;;;;;;5102184;28;20682;-78
2023/06/10 09:43:22;;;;;;;1.65;1.63;;;25.30;67.10;;;;;;5095046;28;20205;-77
2023/06/10 09:45:49;;;;;;;1.45;1.42;;;25.40;68.80;;;;;;5093220;28;20178;-78
2023/06/10 09:48:15;;;;;;;1.60;1.48;;;25.60;69.40;;;;;;5094850;28;20223;-77
2023/06/10 09:50:44;;;;;;;2.25;1.48;;;25.70;68.10;;;;;;5092605;28;20162;-78
2023/06/10 09:53:10;;;;;;;1.30;1.30;;;25.90;68.40;;;;;;5090682;28;20174;-78
2023/06/10 09:55:41;;;;;;;1.45;1.45;;;26.00;67.40;;;;;;5090144;28;20204;-78
2023/06/10 09:58:07;;;;;;;1.65;1.65;;;26.00;67.60;;;;;;5089589;28;20166;-78
2023/06/10 10:00:33;;;;;;;1.67;1.58;;;26.10;67.80;;;;;;5097709;28;20182;-78
2023/06/10 10:03:00;;;;;;;1.80;1.55;;;26.20;66.60;;;;;;5100612;28;20206;-78
2023/06/10 10:05:27;;;;;;;1.40;1.40;;;26.30;66.80;;;;;;5081381;28;20182;-77
2023/06/10 10:07:53;;;;;;;1.15;1.15;;;26.40;67.10;;;;;;5095915;28;20257;-78
2023/06/10 10:10:20;;;;;;;1.30;1.30;;;26.50;66.20;;;;;;5088554;28;20714;-78
2023/06/10 10:12:47;;;;;;;1.63;1.10;;;26.60;66.00;;;;;;5076276;28;20218;-78
2023/06/10 10:15:16;;;;;;;3.35;1.02;;;26.80;64.30;;;;;;5092276;28;20687;-77
2023/06/10 10:18:04;;;;;;;1.00;0.88;;;27.00;64.80;;;;;;5095333;28;20257;-78
2023/06/10 10:20:34;;;;;;;0.82;0.80;;;27.30;62.00;;;;;;5095283;28;20621;-78
2023/06/10 10:23:03;;;;;;;1.00;1.00;;;27.50;62.50;;;;;;5095221;28;20186;-78
2023/06/10 10:25:40;;;;;;;1.15;1.15;;;27.60;62.80;;;;;;5080776;28;20196;-78
2023/06/10 10:28:10;;;;;;;1.30;1.30;;;27.60;63.50;;;;;;5104372;28;20181;-77
2023/06/10 10:30:41;;;;;;;1.48;1.48;;;27.80;63.10;;;;;;5097350;28;20186;-77
2023/06/10 10:33:12;;;;;;;1.60;1.50;;;27.90;60.10;;;;;;5075502;28;20170;-79
2023/06/10 10:35:39;;;;;;;1.27;1.27;;;28.10;61.10;;;;;;5094750;28;20225;-77
2023/06/10 10:38:07;;;;;;;1.00;1.00;;;28.20;59.70;;;;;;5100155;28;20186;-77
2023/06/10 10:40:34;;;;;;;1.35;1.35;;;28.40;60.80;;;;;;5090826;28;20216;-77
2023/06/10 10:43:00;;;;;;;2.95;1.70;;;28.80;60.50;;;;;;5090053;28;20177;-77
2023/06/10 10:45:32;;;;;;;1.20;1.20;;;29.20;61.40;;;;;;5076120;28;20235;-77
2023/06/10 10:48:09;;;;;;;0.95;0.95;;;29.80;60.10;;;;;;5107108;28;20188;-77
2023/06/10 10:50:35;;;;;;;1.17;1.17;;;30.40;59.50;;;;;;5091538;28;20551;-77
2023/06/10 10:53:02;;;;;;;1.48;1.48;;;31.10;58.10;;;;;;5084366;28;20192;-78
2023/06/10 10:55:28;;;;;;;1.27;1.27;;;31.60;55.20;;;;;;5078783;28;20201;-77
2023/06/10 10:57:59;;;;;;;1.98;1.88;;;32.00;55.00;;;;;;5094190;28;20234;-77
2023/06/10 11:00:45;;;;;;;2.55;1.25;;;32.40;57.70;;;;;;5096914;28;20166;-77
2023/06/10 11:03:18;;;;;;;1.20;1.20;;;32.60;56.10;;;;;;5084228;28;20194;-77
2023/06/10 11:05:48;;;;;;;1.45;1.45;;;32.60;55.00;;;;;;5083172;28;20211;-77
2023/06/10 11:08:32;;;;;;;5.82;1.50;;;32.50;57.80;;;;;;5090879;28;20201;-76
2023/06/10 11:10:58;;;;;;;1.50;1.50;;;32.20;55.90;;;;;;5096969;28;20180;-77
2023/06/10 11:13:26;;;;;;;1.83;1.45;;;32.40;55.00;;;;;;5078967;28;20182;-77
2023/06/10 11:15:56;;;;;;;2.30;1.20;;;32.80;53.80;;;;;;5096856;28;20247;-77
2023/06/10 11:18:26;;;;;;;1.02;1.02;;;33.30;52.60;;;;;;5096797;28;20173;-78
2023/06/10 11:20:57;;;;;;;1.40;1.38;;;33.50;56.20;;;;;;5082708;28;20209;-77
2023/06/10 11:23:32;;;;;;;1.38;1.38;;;33.80;54.70;;;;;;5079447;28;20177;-78
2023/06/10 11:26:20;;;;;;;1.50;1.50;;;34.10;53.10;;;;;;5094023;28;20181;-78
2023/06/10 11:29:03;;;;;;;1.60;1.35;;;34.30;52.20;;;;;;5076749;28;20297;-77
2023/06/10 11:31:32;;;;;;;1.52;1.42;;;34.40;52.20;;;;;;5089747;28;20181;-77
2023/06/10 11:34:01;;;;;;;1.50;1.50;;;34.40;53.40;;;;;;5099682;28;20220;-78
2023/06/10 11:36:28;;;;;;;1.33;1.33;;;34.20;52.30;;;;;;5092861;28;20167;-77
2023/06/10 11:38:57;;;;;;;1.77;1.67;;;33.80;56.40;;;;;;5070850;28;20657;-77
2023/06/10 11:41:25;;;;;;;1.90;1.77;;;33.40;53.60;;;;;;5072077;28;20224;-77
2023/06/10 11:43:51;;;;;;;1.50;1.50;;;32.90;57.20;;;;;;5092848;28;20170;-76
2023/06/10 11:46:17;;;;;;;1.33;1.33;;;32.50;55.00;;;;;;5090586;28;20197;-78
2023/06/10 11:48:56;;;;;;;1.73;1.73;;;32.00;55.50;;;;;;5097853;28;20198;-78
2023/06/10 11:51:24;;;;;;;1.77;1.77;;;31.60;56.60;;;;;;5092435;28;20594;-76
2023/06/10 11:53:50;;;;;;;1.65;1.55;;;31.30;55.10;;;;;;5093657;28;20189;-77
2023/06/10 11:56:23;;;;;;;2.10;1.90;;;31.10;56.20;;;;;;5090251;28;20177;-77
2023/06/10 11:58:57;;;;;;;2.08;2.00;;;31.10;59.10;;;;;;5085674;28;20253;-75
2023/06/10 12:01:24;;;;;;;1.58;1.58;;;31.10;57.80;;;;;;5095093;28;20185;-76
2023/06/10 12:04:00;;;;;;;2.42;1.45;;;31.60;58.90;;;;;;5090133;28;20208;-77
2023/06/10 12:06:26;;;;;;;1.85;1.85;;;32.20;56.90;;;;;;5096360;28;20169;-76
2023/06/10 12:08:53;;;;;;;1.63;1.63;;;32.80;56.80;;;;;;5089819;28;20188;-77
2023/06/10 12:11:18;;;;;;;1.95;1.75;;;33.00;52.50;;;;;;5071899;28;20264;-77
2023/06/10 12:13:49;;;;;;;1.25;1.25;;;33.10;55.10;;;;;;5089806;28;20245;-77
2023/06/10 12:16:15;;;;;;;1.70;1.70;;;33.10;53.60;;;;;;5087759;28;20231;-77
2023/06/10 12:18:46;;;;;;;1.17;1.17;;;32.90;53.50;;;;;;5092839;28;20193;-77
2023/06/10 12:21:25;;;;;;;1.10;1.10;;;32.80;53.90;;;;;;5089942;28;20173;-77
2023/06/10 12:24:08;;;;;;;1.58;1.35;;;32.60;52.40;;;;;;5095075;28;20208;-77
2023/06/10 12:26:47;;;;;;;2.15;1.60;;;32.30;52.20;;;;;;5085617;28;20178;-77
2023/06/10 12:29:26;;;;;;;1.60;1.50;;;32.00;52.60;;;;;;5091773;28;20686;-77
2023/06/10 12:31:58;;;;;;;1.40;1.40;;;31.70;52.70;;;;;;5095124;28;20170;-77
2023/06/10 12:34:38;;;;;;;1.17;1.17;;;31.50;53.50;;;;;;5086888;28;20210;-77
2023/06/10 12:37:06;;;;;;;0.98;0.98;;;31.30;53.40;;;;;;5085031;28;20186;-76
2023/06/10 12:39:33;;;;;;;1.40;1.40;;;31.10;54.10;;;;;;5089661;28;20711;-79
2023/06/10 12:42:00;;;;;;;1.20;1.20;;;30.90;54.90;;;;;;5089436;28;20190;-78
2023/06/10 12:44:34;;;;;;;1.50;1.40;;;30.80;54.50;;;;;;5096726;28;20173;-78
2023/06/10 12:47:00;;;;;;;1.30;1.30;;;30.70;54.90;;;;;;5084989;28;20181;-78
2023/06/10 12:49:26;;;;;;;1.40;1.30;;;30.50;55.30;;;;;;5088955;28;20200;-78